Time;durP1;ratioP1;P1;durP2;ratioP2;P2;SDS_P1;SDS_P2;PMS_P1;PMS_P2;Temp;Humidity;BMP_temperature;BMP_pressure;BME280_temperature;BME280_humidity;BME280_pressure;Samples;Min_cycle;Max_cycle;Signal;HPM_P1;HPM_P2
2021/12/07 00:01:00;;;;;;;;;4.25;1.50;;;;;13.30;100.00;100802.72;5079416;28;45559;-78
2021/12/07 00:03:26;;;;;;;;;2.25;1.00;;;;;13.23;100.00;100814.78;5063754;28;45578;-79
2021/12/07 00:05:52;;;;;;;;;5.50;1.50;;;;;13.26;100.00;100819.84;5078990;28;46340;-79
2021/12/07 00:08:17;;;;;;;;;6.75;2.00;;;;;13.24;100.00;100837.69;5076093;28;45231;-79
2021/12/07 00:10:43;;;;;;;;;1.00;1.00;;;;;13.34;100.00;100840.47;5079786;28;45517;-79
2021/12/07 00:13:10;;;;;;;;;1.00;1.00;;;;;13.38;100.00;100831.31;5085829;27;45374;-79
2021/12/07 00:15:36;;;;;;;;;3.00;1.25;;;;;13.36;100.00;100841.19;5101542;27;45566;-79
2021/12/07 00:18:03;;;;;;;;;2.00;2.00;;;;;13.49;100.00;100839.28;5060251;28;45782;-79
2021/12/07 00:20:29;;;;;;;;;1.00;0.00;;;;;13.39;100.00;100833.00;5075212;28;45458;-79
2021/12/07 00:22:59;;;;;;;;;5.50;1.50;;;;;13.64;100.00;100835.44;5095615;27;45373;-79
2021/12/07 00:25:25;;;;;;;;;1.50;0.75;;;;;13.43;100.00;100822.03;5081185;28;48386;-79
2021/12/07 00:27:51;;;;;;;;;2.75;0.50;;;;;13.42;100.00;100815.03;5063505;28;45870;-79
2021/12/07 00:30:17;;;;;;;;;0.50;0.50;;;;;13.46;100.00;100821.81;5096829;27;45511;-79
2021/12/07 00:32:46;;;;;;;;;6.00;1.75;;;;;13.53;100.00;100831.94;5102271;27;45573;-78
2021/12/07 00:37:51;;;;;;;;;2.00;1.50;;;;;13.56;100.00;100834.34;5082716;27;45501;-79
2021/12/07 00:40:19;;;;;;;;;1.75;1.00;;;;;13.62;100.00;100839.16;5081978;28;45442;-79
2021/12/07 00:42:45;;;;;;;;;2.00;1.75;;;;;13.59;100.00;100840.25;5081653;28;45335;-79
2021/12/07 00:45:14;;;;;;;;;1.75;1.00;;;;;13.66;100.00;100844.09;5082071;28;45435;-79
2021/12/07 00:47:40;;;;;;;;;5.00;1.00;;;;;13.81;100.00;100842.06;5081845;28;45598;-79
2021/12/07 00:50:08;;;;;;;;;2.00;1.00;;;;;13.76;100.00;100842.41;5082127;28;45619;-79
2021/12/07 00:52:34;;;;;;;;;5.25;1.00;;;;;13.59;100.00;100839.41;5081788;28;45327;-79
2021/12/07 00:55:00;;;;;;;;;5.50;1.00;;;;;13.69;100.00;100846.53;5080563;28;47007;-79
2021/12/07 00:57:25;;;;;;;;;2.50;1.00;;;;;13.61;100.00;100843.63;5086621;27;45303;-78
2021/12/07 00:59:51;;;;;;;;;2.00;0.00;;;;;13.62;100.00;100833.84;5083783;27;45272;-79
2021/12/07 01:02:17;;;;;;;;;7.25;2.00;;;;;13.83;98.62;100848.09;5084162;27;45344;-78
2021/12/07 01:04:51;;;;;;;;;1.75;1.00;;;;;14.04;98.08;100859.63;5083549;27;47204;-79
2021/12/07 01:07:35;;;;;;;;;1.00;1.00;;;;;13.47;97.83;100844.69;5100875;27;45311;-79
2021/12/07 01:26:24;;;;;;;;;0.00;0.00;;;;;13.48;94.78;100849.03;5069178;28;45304;-78
2021/12/07 01:28:50;;;;;;;;;0.50;0.00;;;;;13.52;94.86;100841.69;5080767;27;45421;-78
2021/12/07 01:31:22;;;;;;;;;0.00;0.00;;;;;13.57;94.22;100828.06;5079910;28;45406;-78
2021/12/07 01:36:42;;;;;;;;;3.00;0.00;;;;;13.60;94.15;100843.75;5081496;28;45225;-78
2021/12/07 01:53:03;;;;;;;;;1.50;0.00;;;;;13.30;94.58;100858.41;5064640;28;45408;-78
2021/12/07 02:01:06;;;;;;;;;0.00;0.00;;;;;13.26;95.45;100854.31;5091585;27;45272;-78
2021/12/07 02:03:32;;;;;;;;;0.00;0.00;;;;;13.51;94.70;100860.38;5082721;27;45336;-78
2021/12/07 02:05:58;;;;;;;;;1.25;0.00;;;;;13.30;95.66;100861.06;5101292;27;45326;-78
2021/12/07 02:08:24;;;;;;;;;0.00;0.00;;;;;13.53;95.13;100859.31;5101189;27;45451;-78
2021/12/07 02:10:54;;;;;;;;;3.00;0.50;;;;;13.28;95.03;100859.53;5101775;27;45699;-78
2021/12/07 02:14:04;;;;;;;;;1.00;0.00;;;;;13.19;96.19;100861.06;5072900;28;45355;-78
2021/12/07 02:16:08;;;;;;;;;0.00;0.00;;;;;13.30;95.65;100866.38;5080102;27;45291;-78
2021/12/07 02:18:33;;;;;;;;;0.50;0.00;;;;;13.25;95.86;100862.41;5078596;28;46112;-78
2021/12/07 02:21:22;;;;;;;;;0.00;0.00;;;;;13.40;95.53;100861.19;5080358;27;45267;-78
2021/12/07 02:23:49;;;;;;;;;0.00;0.00;;;;;13.23;95.59;100874.91;5080636;27;45481;-78
2021/12/07 02:26:14;;;;;;;;;1.00;0.50;;;;;13.16;95.84;100876.34;5065732;28;45594;-78
2021/12/07 02:28:40;;;;;;;;;2.25;0.00;;;;;13.33;95.05;100862.66;5078711;28;46785;-78
2021/12/07 02:31:09;;;;;;;;;0.00;0.00;;;;;13.24;95.42;100879.25;5062278;28;45300;-78
2021/12/07 02:33:35;;;;;;;;;1.00;0.00;;;;;13.13;95.33;100877.41;5059042;28;45329;-78
2021/12/07 02:36:01;;;;;;;;;2.25;0.00;;;;;13.09;95.09;100881.25;5079088;28;45712;-78
2021/12/07 02:38:26;;;;;;;;;2.00;0.00;;;;;13.02;95.59;100885.31;5080202;28;45524;-78
2021/12/07 02:40:52;;;;;;;;;0.75;0.00;;;;;13.36;94.12;100875.69;5082444;27;45512;-78
2021/12/07 02:43:17;;;;;;;;;2.00;0.00;;;;;13.40;93.44;100874.47;5100494;27;45455;-78
2021/12/07 02:45:44;;;;;;;;;0.00;0.00;;;;;13.35;93.17;100869.53;5101324;27;45355;-78
2021/12/07 02:48:10;;;;;;;;;1.00;0.00;;;;;13.52;93.24;100868.22;5100258;27;45430;-78
2021/12/07 02:50:35;;;;;;;;;0.00;0.00;;;;;13.42;92.75;100868.09;5100734;27;45390;-78
2021/12/07 02:53:01;;;;;;;;;1.00;0.00;;;;;13.07;93.93;100886.66;5100685;27;45363;-78
2021/12/07 02:55:27;;;;;;;;;1.50;0.00;;;;;13.04;95.08;100872.78;5078866;27;45938;-78
2021/12/07 02:57:53;;;;;;;;;2.50;1.00;;;;;12.89;95.57;100879.25;5093214;27;45321;-78
2021/12/07 03:00:24;;;;;;;;;1.25;0.00;;;;;12.97;95.70;100877.72;5100523;27;45176;-78
2021/12/07 03:02:58;;;;;;;;;0.00;0.00;;;;;12.76;96.37;100874.00;5100326;27;45392;-78
2021/12/07 03:26:53;;;;;;;;;0.75;0.75;;;;;12.66;99.28;100897.69;5079620;28;45379;-78
2021/12/07 03:29:18;;;;;;;;;3.25;1.00;;;;;12.70;99.70;100907.13;5074466;28;47141;-78
2021/12/07 03:31:44;;;;;;;;;5.50;1.00;;;;;12.74;99.33;100905.09;5083285;28;45501;-78
2021/12/07 03:34:09;;;;;;;;;3.00;1.50;;;;;12.68;99.29;100902.88;5083080;28;45477;-78
2021/12/07 03:36:35;;;;;;;;;6.00;1.00;;;;;12.66;99.76;100913.59;5064869;28;45447;-78
2021/12/07 03:39:00;;;;;;;;;1.00;1.00;;;;;12.78;99.55;100918.94;5082732;28;45278;-78
2021/12/07 03:41:26;;;;;;;;;2.00;0.25;;;;;12.88;99.94;100917.31;5082994;28;45483;-78
2021/12/07 03:43:52;;;;;;;;;2.00;1.00;;;;;12.82;99.27;100909.84;5082696;28;45253;-78
2021/12/07 03:46:17;;;;;;;;;2.75;1.00;;;;;12.89;98.91;100900.47;5082856;28;45479;-78
2021/12/07 03:48:43;;;;;;;;;4.50;1.75;;;;;12.89;99.01;100885.41;5082999;28;45343;-78
2021/12/07 03:51:09;;;;;;;;;2.00;0.00;;;;;12.90;98.43;100894.19;5083084;28;45612;-78
2021/12/07 03:53:35;;;;;;;;;2.00;1.00;;;;;12.73;98.69;100904.25;5082849;28;45555;-78
2021/12/07 03:56:02;;;;;;;;;2.50;0.00;;;;;12.89;99.03;100905.75;5082854;28;45439;-78
2021/12/07 03:58:28;;;;;;;;;0.25;0.00;;;;;12.84;98.28;100902.63;5101737;27;45437;-78
2021/12/07 04:00:53;;;;;;;;;2.00;1.00;;;;;12.93;98.06;100897.44;5103138;27;45240;-78
2021/12/07 04:03:20;;;;;;;;;0.25;0.00;;;;;12.93;97.56;100891.34;5103082;27;45351;-78
2021/12/07 04:05:49;;;;;;;;;0.25;0.00;;;;;12.81;97.57;100895.72;5103207;27;45224;-78
2021/12/07 04:08:17;;;;;;;;;0.00;0.00;;;;;12.84;97.95;100882.22;5102850;27;46152;-78
2021/12/07 04:10:43;;;;;;;;;1.00;0.00;;;;;12.73;97.48;100887.50;5103183;27;45709;-78
2021/12/07 04:13:08;;;;;;;;;0.00;0.00;;;;;12.64;97.64;100873.13;5094785;27;45462;-78
2021/12/07 04:15:34;;;;;;;;;0.00;0.00;;;;;12.61;97.04;100889.25;5064038;28;45586;-78
2021/12/07 04:18:00;;;;;;;;;1.50;1.00;;;;;12.58;97.68;100897.41;5063712;28;47534;-78
2021/12/07 04:20:26;;;;;;;;;0.00;0.00;;;;;12.53;98.04;100904.03;5082431;28;46294;-78
2021/12/07 04:22:52;;;;;;;;;2.25;1.00;;;;;12.85;97.01;100906.94;5082516;27;45409;-78
2021/12/07 04:25:18;;;;;;;;;2.50;1.00;;;;;12.66;97.57;100908.28;5062670;28;45327;-78
2021/12/07 04:27:44;;;;;;;;;3.00;1.00;;;;;12.58;97.55;100900.06;5081813;28;45385;-78
2021/12/07 04:30:17;;;;;;;;;1.50;0.25;;;;;12.62;97.70;100895.41;5064267;28;45645;-78
2021/12/07 04:32:43;;;;;;;;;2.00;0.00;;;;;12.54;98.26;100892.47;5082127;28;45251;-78
2021/12/07 04:35:12;;;;;;;;;0.00;0.00;;;;;12.60;98.03;100899.97;5082344;28;45382;-78
2021/12/07 04:37:38;;;;;;;;;1.00;1.00;;;;;12.55;97.87;100888.88;5080437;28;47891;-78
2021/12/07 04:40:07;;;;;;;;;0.25;0.25;;;;;12.60;97.68;100894.66;5063756;28;45541;-78
2021/12/07 04:42:32;;;;;;;;;0.75;0.00;;;;;12.74;96.65;100892.69;5063587;28;45249;-78
2021/12/07 04:45:02;;;;;;;;;3.50;2.00;;;;;12.63;97.18;100892.66;5082089;28;45415;-78
2021/12/07 04:47:43;;;;;;;;;2.50;0.00;;;;;12.58;96.55;100881.53;5081509;27;46190;-78
2021/12/07 04:58:41;;;;;;;;;0.75;0.75;;;;;12.30;97.66;100889.78;5081939;27;45281;-78
2021/12/07 05:01:10;;;;;;;;;1.00;0.00;;;;;12.31;97.99;100887.03;5102184;27;45244;-78
2021/12/07 05:03:37;;;;;;;;;2.75;1.00;;;;;12.43;97.62;100887.94;5083957;27;45499;-78
2021/12/07 05:06:03;;;;;;;;;2.00;1.00;;;;;12.41;97.53;100889.00;5101703;27;45555;-78
2021/12/07 05:08:37;;;;;;;;;1.00;1.00;;;;;12.58;96.75;100873.56;5083438;27;48183;-78
2021/12/07 05:13:36;;;;;;;;;3.75;0.50;;;;;12.70;96.23;100893.88;5092485;27;45514;-78
2021/12/07 05:16:13;;;;;;;;;3.50;0.00;;;;;12.51;96.97;100890.88;5079606;28;45469;-78
2021/12/07 05:24:11;;;;;;;;;3.00;1.00;;;;;12.43;97.70;100887.94;5081506;28;45491;-78
2021/12/07 05:37:50;;;;;;;;;1.00;1.00;;;;;12.30;98.50;100900.38;5081647;28;45166;-78
2021/12/07 05:40:20;;;;;;;;;2.50;2.00;;;;;12.74;97.32;100903.31;5081025;28;46556;-78
2021/12/07 05:42:47;;;;;;;;;1.00;1.00;;;;;12.66;96.79;100905.66;5080824;28;45655;-78
2021/12/07 05:45:20;;;;;;;;;1.50;1.50;;;;;12.65;97.21;100900.47;5074115;28;45988;-78
2021/12/07 05:47:46;;;;;;;;;2.50;2.00;;;;;12.66;97.54;100892.41;5071958;27;45678;-78
2021/12/07 05:50:17;;;;;;;;;3.00;1.00;;;;;12.99;96.97;100890.84;5056950;28;48299;-78
2021/12/07 05:52:43;;;;;;;;;2.50;2.00;;;;;13.03;95.25;100882.53;5100694;27;45311;-78
2021/12/07 05:55:08;;;;;;;;;5.75;1.00;;;;;12.95;96.44;100895.53;5082880;27;45398;-79
2021/12/07 05:57:35;;;;;;;;;5.25;1.00;;;;;13.00;95.48;100900.50;5069463;27;45546;-78
2021/12/07 06:00:01;;;;;;;;;6.00;2.00;;;;;13.00;94.96;100904.00;5088225;27;45436;-78
2021/12/07 06:02:27;;;;;;;;;3.00;1.00;;;;;13.05;95.05;100907.16;5067319;28;46007;-79
2021/12/07 06:04:53;;;;;;;;;4.25;2.50;;;;;13.07;95.11;100907.03;5078701;28;45265;-79
2021/12/07 06:07:18;;;;;;;;;3.25;1.00;;;;;13.10;94.77;100912.97;5062521;28;45232;-79
2021/12/07 06:09:43;;;;;;;;;5.25;2.00;;;;;12.69;96.48;100916.03;5080664;28;45232;-78
2021/12/07 06:12:09;;;;;;;;;3.00;0.50;;;;;13.01;95.84;100905.69;5062077;28;45371;-78
2021/12/07 06:14:41;;;;;;;;;12.75;3.25;;;;;13.06;94.53;100906.19;5075558;28;45252;-78
2021/12/07 06:17:07;;;;;;;;;5.50;2.75;;;;;12.67;96.12;100890.59;5059808;28;45453;-78
2021/12/07 06:19:32;;;;;;;;;5.25;2.25;;;;;12.70;96.21;100893.88;5054443;28;46278;-79
2021/12/07 06:21:58;;;;;;;;;3.00;3.00;;;;;12.51;96.37;100877.63;5056933;28;45268;-79
2021/12/07 06:24:23;;;;;;;;;7.00;5.25;;;;;12.48;96.53;100877.00;5057375;28;45749;-78
2021/12/07 06:26:49;;;;;;;;;7.00;3.25;;;;;12.42;96.92;100870.38;5064487;28;45462;-78
2021/12/07 06:29:14;;;;;;;;;12.50;6.50;;;;;12.81;95.82;100868.38;5057026;28;48185;-79
2021/12/07 06:31:40;;;;;;;;;5.50;4.50;;;;;13.10;94.73;100856.44;5061263;28;45850;-79
2021/12/07 06:34:05;;;;;;;;;6.50;5.50;;;;;13.10;93.83;100848.47;5058264;28;45487;-79
2021/12/07 06:36:30;;;;;;;;;9.50;5.75;;;;;13.01;93.94;100841.22;5058410;28;45675;-79
2021/12/07 06:38:56;;;;;;;;;8.25;7.25;;;;;12.70;95.17;100853.28;5069750;28;46186;-79
2021/12/07 06:41:21;;;;;;;;;2.75;2.75;;;;;12.51;96.34;100850.31;5061472;28;45406;-80
2021/12/07 06:43:47;;;;;;;;;7.75;4.00;;;;;12.59;96.47;100848.78;5066702;28;45463;-79
2021/12/07 06:46:12;;;;;;;;;9.00;4.75;;;;;12.81;95.83;100849.84;5065873;28;45245;-79
2021/12/07 06:48:38;;;;;;;;;10.00;5.00;;;;;12.45;96.75;100848.13;5065094;28;47800;-79
2021/12/07 06:51:04;;;;;;;;;7.50;7.50;;;;;12.45;97.34;100848.13;5043401;28;45779;-78
2021/12/07 06:53:35;;;;;;;;;8.25;8.25;;;;;12.46;97.16;100848.00;5058342;28;45355;-79
2021/12/07 06:56:03;;;;;;;;;13.75;6.00;;;;;12.65;95.94;100839.53;5051025;28;45370;-79
2021/12/07 06:58:28;;;;;;;;;13.00;9.00;;;;;12.67;95.88;100834.97;5049559;28;45378;-79
2021/12/07 07:00:54;;;;;;;;;10.50;8.50;;;;;12.43;97.10;100834.13;5049702;28;45453;-78
2021/12/07 07:03:19;;;;;;;;;11.75;6.00;;;;;12.25;96.78;100823.09;5058210;28;45431;-78
2021/12/07 07:05:45;;;;;;;;;17.50;9.25;;;;;12.13;98.44;100816.03;5066564;27;45570;-79
2021/12/07 07:08:10;;;;;;;;;9.50;9.00;;;;;12.17;98.13;100815.72;5075650;28;47262;-79
2021/12/07 07:10:36;;;;;;;;;12.75;10.00;;;;;12.46;98.13;100823.31;5055863;28;45506;-78
2021/12/07 07:13:01;;;;;;;;;11.75;9.25;;;;;12.27;98.45;100818.53;5047100;28;45536;-79
2021/12/07 07:15:27;;;;;;;;;16.50;11.00;;;;;12.47;97.66;100807.31;5075597;28;45570;-79
2021/12/07 07:17:52;;;;;;;;;14.75;10.25;;;;;12.10;99.56;100805.69;5082127;28;46383;-79
2021/12/07 07:20:18;;;;;;;;;15.00;11.75;;;;;12.11;99.56;100802.09;5080077;28;45347;-79
2021/12/07 07:22:43;;;;;;;;;17.25;12.75;;;;;12.16;99.89;100794.66;5048222;28;45380;-79
2021/12/07 07:25:10;;;;;;;;;13.75;9.50;;;;;12.43;99.15;100797.06;5057673;28;45896;-79
2021/12/07 07:27:36;;;;;;;;;10.25;7.25;;;;;12.30;99.21;100791.81;5082049;28;45942;-79
2021/12/07 07:30:04;;;;;;;;;22.25;13.50;;;;;12.19;99.79;100789.13;5082398;28;45354;-78
2021/12/07 07:32:29;;;;;;;;;12.25;12.00;;;;;12.08;100.00;100778.47;5082550;27;45430;-79
2021/12/07 07:34:55;;;;;;;;;17.75;14.00;;;;;11.90;100.00;100767.44;5063966;28;45940;-79
2021/12/07 07:37:20;;;;;;;;;16.00;15.00;;;;;12.01;100.00;100769.31;5082217;28;45399;-79
2021/12/07 07:39:46;;;;;;;;;19.00;15.50;;;;;12.10;100.00;100766.00;5082172;28;45401;-79
2021/12/07 07:42:11;;;;;;;;;16.75;13.00;;;;;12.19;100.00;100760.88;5063983;28;45413;-79
2021/12/07 07:44:37;;;;;;;;;15.75;12.00;;;;;12.19;100.00;100757.38;5089532;27;45619;-80
2021/12/07 07:47:04;;;;;;;;;31.00;21.00;;;;;12.15;100.00;100753.25;5072819;28;46282;-80
2021/12/07 07:49:29;;;;;;;;;22.25;17.00;;;;;12.21;100.00;100744.84;5063707;28;45329;-78
2021/12/07 07:51:55;;;;;;;;;20.50;13.00;;;;;12.43;100.00;100737.00;5078996;28;45224;-79
2021/12/07 07:54:20;;;;;;;;;23.50;15.25;;;;;12.43;100.00;100741.44;5082333;28;45512;-78
2021/12/07 07:56:46;;;;;;;;;15.50;13.75;;;;;12.48;100.00;100729.53;5066102;28;47238;-78
2021/12/07 07:59:11;;;;;;;;;24.00;14.25;;;;;12.78;99.14;100741.41;5072799;27;45496;-78
2021/12/07 08:01:36;;;;;;;;;27.25;17.00;;;;;12.75;99.00;100743.31;5055802;28;45457;-78
2021/12/07 08:04:04;;;;;;;;;19.75;14.50;;;;;12.88;98.51;100735.28;5062794;28;45848;-78
2021/12/07 08:06:29;;;;;;;;;17.50;14.25;;;;;12.85;98.01;100732.03;5081578;28;46317;-78
2021/12/07 08:08:56;;;;;;;;;15.00;12.25;;;;;13.18;96.40;100725.97;5081788;28;45282;-79
2021/12/07 08:11:21;;;;;;;;;21.50;17.00;;;;;12.99;95.96;100719.41;5082225;28;45355;-79
2021/12/07 08:13:47;;;;;;;;;17.75;13.00;;;;;13.01;96.13;100704.22;5060624;28;45665;-80
2021/12/07 08:16:15;;;;;;;;;18.75;11.75;;;;;13.10;96.28;100713.28;5081336;28;46007;-79
2021/12/07 08:18:48;;;;;;;;;19.00;17.75;;;;;12.98;97.45;100706.28;5060147;28;45572;-79
2021/12/07 08:21:15;;;;;;;;;34.00;19.00;;;;;12.81;97.41;100714.69;5074558;28;45509;-79
2021/12/07 08:23:41;;;;;;;;;29.00;13.50;;;;;12.85;96.59;100702.88;5063112;28;45474;-80
2021/12/07 08:26:09;;;;;;;;;21.75;17.25;;;;;12.98;96.62;100698.31;5064049;28;47067;-79
2021/12/07 08:28:35;;;;;;;;;16.25;5.50;;;;;12.88;95.38;100686.75;5080462;27;45892;-80
2021/12/07 08:31:00;;;;;;;;;23.75;16.25;;;;;12.65;97.39;100697.34;5074467;28;45181;-80
2021/12/07 08:33:26;;;;;;;;;20.25;17.00;;;;;12.59;97.62;100681.88;5079609;27;45431;-79
2021/12/07 08:35:52;;;;;;;;;23.00;14.00;;;;;12.61;97.48;100677.31;5092622;27;46167;-79
2021/12/07 08:38:17;;;;;;;;;20.50;13.50;;;;;12.59;97.57;100676.59;5080436;28;45470;-80
2021/12/07 08:40:43;;;;;;;;;22.50;13.25;;;;;12.41;97.69;100679.78;5068270;27;45470;-81
2021/12/07 08:43:12;;;;;;;;;17.50;13.50;;;;;12.54;99.38;100680.56;5096971;27;45286;-83
2021/12/07 08:45:39;;;;;;;;;20.75;14.50;;;;;12.81;98.14;100686.38;5090349;27;45430;-81
2021/12/07 08:48:06;;;;;;;;;21.50;16.00;;;;;12.88;98.17;100684.94;5062366;28;45816;-81
2021/12/07 08:50:33;;;;;;;;;19.75;14.25;;;;;12.54;98.26;100673.47;5081463;28;45335;-81
2021/12/07 08:53:03;;;;;;;;;14.50;14.50;;;;;12.30;99.91;100677.97;5081868;28;45209;-81
2021/12/07 09:01:00;;;;;;;;;15.00;12.00;;;;;12.08;100.00;100651.44;5102715;27;45395;-81
2021/12/07 09:03:25;;;;;;;;;21.50;14.75;;;;;11.95;100.00;100631.16;5102140;27;45580;-81
2021/12/07 09:05:51;;;;;;;;;21.75;17.00;;;;;11.98;100.00;100644.19;5102148;27;46297;-81
2021/12/07 09:08:16;;;;;;;;;21.00;14.00;;;;;12.09;100.00;100627.50;5102111;27;45400;-81
2021/12/07 09:10:42;;;;;;;;;18.25;11.75;;;;;12.01;100.00;100605.22;5102338;27;45236;-81
2021/12/07 09:13:08;;;;;;;;;14.50;12.50;;;;;11.99;100.00;100597.41;5093975;27;45216;-81
2021/12/07 09:15:34;;;;;;;;;13.50;11.50;;;;;11.83;100.00;100605.66;5081418;28;45446;-81
2021/12/07 09:17:59;;;;;;;;;13.50;10.75;;;;;11.98;100.00;100599.19;5063240;28;45709;-81
2021/12/07 09:20:25;;;;;;;;;14.00;11.25;;;;;12.21;100.00;100591.28;5061003;28;45245;-81
2021/12/07 09:22:50;;;;;;;;;14.00;7.50;;;;;11.94;100.00;100599.53;5081506;28;45560;-81
2021/12/07 09:25:17;;;;;;;;;14.75;12.50;;;;;11.96;100.00;100585.22;5081278;28;45512;-81
2021/12/07 09:27:43;;;;;;;;;16.00;13.00;;;;;11.96;100.00;100563.22;5080156;28;45687;-81
2021/12/07 09:30:14;;;;;;;;;14.00;9.75;;;;;12.30;100.00;100553.53;5081498;27;45357;-81
2021/12/07 09:32:40;;;;;;;;;23.00;12.75;;;;;12.18;100.00;100562.44;5081294;28;45259;-80
2021/12/07 09:35:07;;;;;;;;;20.00;13.50;;;;;12.31;100.00;100576.38;5082392;28;46053;-81
2021/12/07 09:37:33;;;;;;;;;15.25;11.25;;;;;12.35;100.00;100560.16;5063192;28;45326;-81
2021/12/07 09:39:59;;;;;;;;;18.00;12.50;;;;;12.33;100.00;100577.13;5079749;28;45503;-81
2021/12/07 09:42:24;;;;;;;;;21.00;13.75;;;;;12.02;100.00;100585.75;5080934;28;45394;-81
2021/12/07 09:44:50;;;;;;;;;16.50;10.50;;;;;11.96;100.00;100572.00;5081061;27;45641;-81
2021/12/07 09:47:15;;;;;;;;;13.00;10.00;;;;;11.99;100.00;100571.78;5080935;28;45311;-81
2021/12/07 09:49:40;;;;;;;;;14.00;10.00;;;;;12.38;100.00;100574.97;5080971;28;45390;-81
2021/12/07 09:52:06;;;;;;;;;20.00;13.00;;;;;12.35;100.00;100570.75;5062639;28;45876;-80
2021/12/07 09:54:32;;;;;;;;;14.50;10.00;;;;;12.17;100.00;100560.75;5080846;28;46454;-81
2021/12/07 09:56:57;;;;;;;;;14.25;10.75;;;;;12.18;100.00;100538.59;5071662;27;45263;-81
2021/12/07 09:59:23;;;;;;;;;14.00;9.00;;;;;12.34;100.00;100557.63;5101409;27;45257;-81
2021/12/07 10:01:49;;;;;;;;;16.50;11.50;;;;;12.32;100.00;100556.91;5101249;27;45394;-81
2021/12/07 10:04:15;;;;;;;;;14.00;9.00;;;;;12.41;100.00;100563.28;5100960;27;45549;-81
2021/12/07 10:06:40;;;;;;;;;11.00;10.00;;;;;12.39;100.00;100563.38;5082873;27;45275;-80
2021/12/07 10:09:07;;;;;;;;;13.25;11.00;;;;;12.57;100.00;100561.09;5101620;27;45380;-81
2021/12/07 10:11:34;;;;;;;;;10.75;4.75;;;;;12.60;100.00;100560.88;5101399;27;45576;-81
2021/12/07 10:13:59;;;;;;;;;15.25;11.00;;;;;12.65;100.00;100546.31;5067436;28;48185;-81
2021/12/07 10:16:25;;;;;;;;;13.50;10.25;;;;;12.74;100.00;100539.44;5080298;27;45413;-81
2021/12/07 10:18:52;;;;;;;;;17.00;11.75;;;;;12.79;100.00;100526.66;5080558;28;45271;-81
2021/12/07 10:21:31;;;;;;;;;17.50;11.50;;;;;12.85;100.00;100512.91;5078762;28;45459;-81
2021/12/07 10:24:02;;;;;;;;;15.00;10.50;;;;;12.73;100.00;100524.50;5069846;28;46131;-81
2021/12/07 10:26:31;;;;;;;;;22.75;11.00;;;;;12.76;100.00;100508.34;5080244;28;45307;-81
2021/12/07 10:28:59;;;;;;;;;13.50;11.00;;;;;12.84;100.00;100499.81;5080516;28;45339;-81
2021/12/07 10:31:24;;;;;;;;;12.50;7.50;;;;;12.71;100.00;100482.25;5080306;28;45455;-81
2021/12/07 10:33:52;;;;;;;;;9.25;9.25;;;;;12.61;100.00;100477.81;5080581;28;45409;-81
2021/12/07 10:36:21;;;;;;;;;13.25;10.00;;;;;12.69;100.00;100478.88;5080175;28;45599;-81
2021/12/07 10:39:00;;;;;;;;;15.00;10.75;;;;;12.78;100.00;100463.19;5080143;28;45461;-81
2021/12/07 10:41:26;;;;;;;;;16.25;10.25;;;;;12.70;100.00;100447.91;5080658;28;45399;-81
2021/12/07 10:44:00;;;;;;;;;22.25;13.00;;;;;13.10;100.00;100437.56;5063240;28;47374;-81
2021/12/07 10:46:39;;;;;;;;;15.25;10.00;;;;;12.94;100.00;100426.50;5087247;27;45443;-81
2021/12/07 10:49:12;;;;;;;;;11.25;9.75;;;;;13.06;100.00;100425.50;5100435;27;45382;-81
2021/12/07 10:51:40;;;;;;;;;15.50;11.00;;;;;13.17;100.00;100406.94;5072192;27;45272;-81
2021/12/07 10:54:06;;;;;;;;;13.75;13.00;;;;;12.86;100.00;100394.50;5079867;28;45465;-81
2021/12/07 10:56:36;;;;;;;;;26.00;18.75;;;;;12.96;100.00;100384.84;5071491;27;45736;-81
2021/12/07 10:59:09;;;;;;;;;17.50;13.75;;;;;12.90;100.00;100372.94;5100546;27;45231;-81
2021/12/07 11:01:38;;;;;;;;;19.75;12.00;;;;;13.29;100.00;100355.50;5082119;27;46090;-81
2021/12/07 11:04:30;;;;;;;;;20.25;14.00;;;;;13.52;100.00;100358.88;5081762;27;47041;-81
2021/12/07 11:07:21;;;;;;;;;19.25;11.25;;;;;13.61;100.00;100341.31;5100393;27;45310;-81
2021/12/07 11:10:29;;;;;;;;;20.00;13.50;;;;;13.42;100.00;100345.53;5100561;27;45459;-81
2021/12/07 11:13:16;;;;;;;;;19.00;14.25;;;;;13.90;100.00;100326.34;5092223;27;45482;-81
2021/12/07 11:15:52;;;;;;;;;9.75;9.75;;;;;13.58;100.00;100315.88;5079250;27;46797;-81
2021/12/07 11:18:35;;;;;;;;;14.25;11.00;;;;;13.58;100.00;100305.25;5062933;28;45420;-81
2021/12/07 11:21:05;;;;;;;;;10.25;9.50;;;;;13.57;100.00;100290.31;5061750;28;45449;-82
2021/12/07 11:23:37;;;;;;;;;16.75;13.25;;;;;13.40;100.00;100262.63;5073077;28;45437;-81
2021/12/07 11:31:42;;;;;;;;;10.00;9.50;;;;;13.64;100.00;100253.50;5079897;28;45445;-81
2021/12/07 11:34:12;;;;;;;;;10.75;9.75;;;;;13.61;100.00;100229.88;5079618;28;45355;-81
2021/12/07 11:36:45;;;;;;;;;13.75;9.50;;;;;13.55;100.00;100233.94;5079586;28;46133;-81
2021/12/07 11:39:49;;;;;;;;;17.00;7.75;;;;;13.64;100.00;100219.00;5061406;28;45797;-81
2021/12/07 11:42:20;;;;;;;;;12.25;7.00;;;;;13.72;100.00;100197.94;5079825;28;45267;-81
2021/12/07 11:44:57;;;;;;;;;13.50;9.50;;;;;13.68;100.00;100196.53;5079719;28;45328;-81
2021/12/07 11:47:30;;;;;;;;;10.00;7.00;;;;;13.78;100.00;100194.72;5079150;28;45497;-81
2021/12/07 11:49:57;;;;;;;;;12.00;7.00;;;;;13.68;100.00;100189.41;5080772;28;45378;-81
2021/12/07 11:52:23;;;;;;;;;17.25;9.50;;;;;13.77;100.00;100177.13;5067085;28;45345;-81
2021/12/07 11:54:49;;;;;;;;;19.75;11.75;;;;;13.63;100.00;100165.09;5085998;28;45315;-81
2021/12/07 11:57:18;;;;;;;;;12.75;9.25;;;;;13.84;100.00;100154.34;5084752;28;45252;-81
2021/12/07 11:59:46;;;;;;;;;10.00;6.25;;;;;13.92;100.00;100138.59;5065609;28;45335;-80
2021/12/07 12:02:12;;;;;;;;;13.00;9.00;;;;;13.90;100.00;100137.91;5082921;28;45265;-81
2021/12/07 12:04:39;;;;;;;;;15.50;9.75;;;;;14.00;100.00;100122.81;5083084;28;45148;-81
2021/12/07 12:07:08;;;;;;;;;11.25;7.50;;;;;14.03;100.00;100109.22;5082670;28;46208;-81
2021/12/07 12:09:34;;;;;;;;;7.25;6.75;;;;;13.85;100.00;100110.91;5083107;28;45485;-81
2021/12/07 12:12:17;;;;;;;;;16.50;8.25;;;;;13.72;100.00;100105.91;5082602;28;45366;-81
2021/12/07 12:15:01;;;;;;;;;12.50;6.25;;;;;13.68;100.00;100103.66;5076148;27;45438;-81
2021/12/07 12:18:13;;;;;;;;;6.00;5.25;;;;;13.57;100.00;100096.66;5082406;28;46138;-81
2021/12/07 12:21:06;;;;;;;;;7.00;7.00;;;;;13.62;100.00;100081.19;5079446;28;45230;-82
2021/12/07 12:23:52;;;;;;;;;12.50;7.00;;;;;13.66;100.00;100074.59;5064169;28;45333;-80
2021/12/07 12:26:23;;;;;;;;;13.00;8.75;;;;;13.73;100.00;100053.69;5065047;28;46331;-81
2021/12/07 12:28:50;;;;;;;;;11.75;10.75;;;;;13.69;100.00;100073.50;5083738;28;46605;-80
2021/12/07 12:31:17;;;;;;;;;13.50;11.00;;;;;13.85;100.00;100060.50;5081778;28;45339;-81
2021/12/07 12:34:01;;;;;;;;;14.50;7.75;;;;;13.98;100.00;100041.63;5081737;28;45313;-81
2021/12/07 12:36:36;;;;;;;;;18.00;8.00;;;;;13.77;100.00;100031.16;5079405;28;45261;-81
2021/12/07 12:39:06;;;;;;;;;14.25;8.00;;;;;13.57;100.00;100000.31;5081462;28;45204;-81
2021/12/07 12:41:32;;;;;;;;;10.50;9.50;;;;;13.54;100.00;99988.19;5069083;27;45715;-81
2021/12/07 12:44:06;;;;;;;;;7.75;7.00;;;;;13.70;100.00;99982.31;5078209;27;45502;-80
2021/12/07 12:46:34;;;;;;;;;9.50;5.50;;;;;13.89;100.00;99976.97;5081756;28;45395;-81
2021/12/07 12:49:05;;;;;;;;;13.25;6.50;;;;;13.91;100.00;99960.91;5077411;28;45478;-83
2021/12/07 12:51:41;;;;;;;;;5.00;3.50;;;;;13.99;100.00;99948.59;5085372;27;45316;-81
2021/12/07 12:54:08;;;;;;;;;7.25;5.75;;;;;13.85;100.00;99923.31;5102202;27;45429;-82
2021/12/07 12:56:36;;;;;;;;;8.75;5.00;;;;;13.86;100.00;99942.75;5091087;27;45440;-82
2021/12/07 12:59:05;;;;;;;;;9.00;5.00;;;;;14.00;100.00;99921.06;5068532;28;45481;-82
2021/12/07 13:01:32;;;;;;;;;10.00;6.00;;;;;14.05;99.90;99899.38;5080292;28;45442;-82